Sjobris — SLXP — position and weather

sailwx.info

Track history (hours):
 
Tides and Currents Weather Stations Pressure Air Temp Water Temp Dewpoint Dewpoint Depression Visibility Wind Speed Wind Dir Waves Ship Positions

Sjobris

Last reported at 2017-May-28 01:00 UTC. Time now 2017-May-28 01:08 UTC.
Position N 59°20' E 018°05'.

Length 38 m.

Type: Passenger vessel. MMSI: 265522700.

Date/timePositionNaut miles runAvg speedWind from/ knotsBaromVisibWave heightAir tempDewpointWater temp
2017-May-28 01:00N 59°20' E 018°05'0 0.0
2017-May-28 00:30N 59°20' E 018°05'0 0.0
2017-May-28 00:00N 59°20' E 018°05'0 0.0
2017-May-27 23:30N 59°20' E 018°05'0 0.0
2017-May-27 23:00N 59°20' E 018°05'0 0.0
2017-May-27 22:30N 59°20' E 018°05'0 0.0
2017-May-27 22:00N 59°20' E 018°05'0 0.0
2017-May-27 21:30N 59°20' E 018°05'0 0.0
2017-May-27 21:00N 59°20' E 018°05'0 0.0
2017-May-27 20:30N 59°20' E 018°05'0 0.0
2017-May-27 20:00N 59°20' E 018°05'0 0.0
2017-May-27 19:30N 59°20' E 018°05'0 0.0
2017-May-27 19:00N 59°20' E 018°05'0 0.0
2017-May-27 18:30N 59°20' E 018°05'0 0.0
2017-May-27 18:00N 59°20' E 018°05'0 0.0
2017-May-27 17:30N 59°20' E 018°05'0 0.0
2017-May-27 17:00N 59°20' E 018°05'0 0.0
2017-May-27 16:30N 59°20' E 018°05'3 6.1
2017-May-27 16:00N 59°20' E 018°11'612.5
2017-May-27 15:30N 59°23' E 018°20'5 9.3
2017-May-27 15:01N 59°27' E 018°26'713.8
2017-May-27 14:28N 59°33' E 018°35'1111.0
2017-May-27 13:30N 59°38' E 018°54'4 8.5
2017-May-27 13:00N 59°41' E 018°59'3 6.5
2017-May-27 12:30N 59°38' E 019°01'510.5
2017-May-27 12:00N 59°36' E 019°10'0 0.2
2017-May-27 11:30N 59°36' E 019°10'0 0.0
2017-May-27 11:00N 59°36' E 019°10'510.5
2017-May-27 10:31N 59°38' E 019°01'3 6.1
2017-May-27 10:00N 59°40' E 018°58'4 7.9
2017-May-27 09:31N 59°37' E 018°53'5 9.2
2017-May-27 09:00N 59°34' E 018°47'612.2
2017-May-27 08:29N 59°33' E 018°35'715.1
2017-May-27 08:00N 59°27' E 018°26'510.2
2017-May-27 07:30N 59°23' E 018°20'713.7
2017-May-27 07:00N 59°19' E 018°09'2 4.6
2017-May-27 06:30N 59°20' E 018°05'0 0.0
2017-May-27 06:00N 59°20' E 018°05'0 0.0
2017-May-27 05:30N 59°20' E 018°05'0 0.0
2017-May-27 05:00N 59°20' E 018°05'0 0.0
2017-May-27 04:30N 59°20' E 018°05'0 0.0
2017-May-27 04:00N 59°20' E 018°05'0 0.0
2017-May-27 03:30N 59°20' E 018°05'0 0.0
2017-May-27 03:00N 59°20' E 018°05'0 0.0
2017-May-27 02:30N 59°20' E 018°05'0 0.0
2017-May-27 02:00N 59°20' E 018°05'0 0.0
2017-May-27 01:30N 59°20' E 018°05'0 0.0
2017-May-27 01:00N 59°20' E 018°05'0 0.0
2017-May-27 00:30N 59°20' E 018°05'0 0.0
2017-May-27 00:00N 59°20' E 018°05'0 0.0
2017-May-26 23:30N 59°20' E 018°05'0 0.0
2017-May-26 23:00N 59°20' E 018°05'0 0.0
2017-May-26 22:30N 59°20' E 018°05'0 0.0
2017-May-26 22:00N 59°20' E 018°05'2 4.8
2017-May-26 21:30N 59°19' E 018°09'815.2
2017-May-26 21:00N 59°24' E 018°21'612.4
2017-May-26 20:30N 59°29' E 018°27'714.6
2017-May-26 20:00N 59°34' E 018°38'611.8
2017-May-26 19:31N 59°34' E 018°50'918.4
2017-May-26 19:00N 59°36' E 019°08'2 4.9
2017-May-26 18:31N 59°35' E 019°04'5 9.3
2017-May-26 18:00N 59°39' E 018°60'3 6.8
2017-May-26 17:30N 59°38' E 018°54'3 6.4
2017-May-26 17:00N 59°35' E 018°50'612.6
2017-May-26 16:31N 59°34' E 018°38'712.9
2017-May-26 15:59N 59°28' E 018°29'612.5
2017-May-26 15:30N 59°24' E 018°21'5 9.8
2017-May-26 15:00N 59°21' E 018°14'510.0
2017-May-26 14:31N 59°20' E 018°05'7 7.4
2017-May-26 13:30N 59°23' E 018°18'510.5
2017-May-26 13:00N 59°27' E 018°25'915.0
2017-May-26 12:24N 59°33' E 018°37'512.9
2017-May-26 11:59N 59°35' E 018°47'919.1
2017-May-26 11:30N 59°36' E 019°05'1 2.6
2017-May-26 11:00N 59°35' E 019°05'4 8.7
2017-May-26 10:31N 59°39' E 019°01'3 5.2
2017-May-26 10:00N 59°39' E 018°56'3 6.2
2017-May-26 09:30N 59°36' E 018°52'4 8.6
2017-May-26 09:00N 59°34' E 018°45'611.1
2017-May-26 08:30N 59°32' E 018°34'714.4
2017-May-26 07:59N 59°27' E 018°25'4 8.8
2017-May-26 07:30N 59°23' E 018°20'714.0
2017-May-26 07:00N 59°19' E 018°09'2 4.8
2017-May-26 06:30N 59°20' E 018°04'0 0.0
2017-May-26 06:00N 59°20' E 018°04'0 0.0
2017-May-26 05:30N 59°20' E 018°04'0 0.0
2017-May-26 05:00N 59°20' E 018°04'0 0.0
2017-May-26 04:30N 59°20' E 018°04'0 0.0
2017-May-26 04:00N 59°20' E 018°04'0 0.0
2017-May-26 03:30N 59°20' E 018°04'0 0.0
2017-May-26 03:00N 59°20' E 018°04'0 0.0
2017-May-26 02:30N 59°20' E 018°04'0 0.0
2017-May-26 02:00N 59°20' E 018°04'0 0.0
2017-May-26 01:30N 59°20' E 018°04'0 0.0
2017-May-26 01:00N 59°20' E 018°04'0 0.0
2017-May-26 00:30N 59°20' E 018°04'0 0.0
2017-May-26 00:00N 59°20' E 018°04'0 0.0
2017-May-25 23:30N 59°20' E 018°04'0 0.0
2017-May-25 23:00N 59°20' E 018°04'0 0.0
2017-May-25 22:30N 59°20' E 018°04'0 0.0
2017-May-25 22:00N 59°20' E 018°04'0 0.0
2017-May-25 21:30N 59°20' E 018°04'0 0.0
2017-May-25 21:00N 59°20' E 018°04'0 0.0
2017-May-25 20:30N 59°20' E 018°04'0 0.0
2017-May-25 20:00N 59°20' E 018°04'0 0.0
2017-May-25 19:30N 59°20' E 018°04'0 0.0
2017-May-25 19:00N 59°20' E 018°04'0 0.0
2017-May-25 18:30N 59°20' E 018°04'0 0.0
2017-May-25 18:00N 59°20' E 018°04'0 0.0
2017-May-25 17:30N 59°20' E 018°04'1 2.2
2017-May-25 17:00N 59°19' E 018°06'713.1
2017-May-25 16:30N 59°22' E 018°18'4 8.6
2017-May-25 16:00N 59°26' E 018°22'612.4
2017-May-25 15:30N 59°30' E 018°31'612.0
2017-May-25 15:00N 59°34' E 018°39'611.4
2017-May-25 14:30N 59°38' E 018°48'6 6.0
2017-May-25 13:30N 59°37' E 019°00'510.3
2017-May-25 13:00N 59°36' E 019°10'2 4.8
2017-May-25 12:30N 59°35' E 019°06'4 8.4
2017-May-25 12:00N 59°38' E 019°00'3 5.1
2017-May-25 11:31N 59°38' E 018°55'3 5.8
2017-May-25 11:01N 59°36' E 018°51'4 7.2
2017-May-25 10:31N 59°34' E 018°46'610.4
2017-May-25 09:53N 59°32' E 018°34'512.6
2017-May-25 09:28N 59°28' E 018°28'510.1
2017-May-25 09:00N 59°24' E 018°21'5 9.6
2017-May-25 08:30N 59°21' E 018°15'510.6
2017-May-25 08:01N 59°20' E 018°05'0 0.0
2017-May-25 07:30N 59°20' E 018°05'0 0.0
2017-May-25 07:01N 59°20' E 018°05'0 0.0
2017-May-25 06:30N 59°20' E 018°05'0 0.0
2017-May-25 06:00N 59°20' E 018°05'0 0.0
2017-May-25 05:30N 59°20' E 018°05'0 0.0
2017-May-25 05:00N 59°20' E 018°05'0 0.0
2017-May-25 04:31N 59°20' E 018°05'0 0.0
2017-May-25 04:01N 59°20' E 018°05'0 0.0
2017-May-25 03:30N 59°20' E 018°05'0 0.0
2017-May-25 03:00N 59°20' E 018°05'0 0.0
2017-May-25 02:31N 59°20' E 018°05'0 0.0
2017-May-25 02:00N 59°20' E 018°05'0 0.0
2017-May-25 01:30N 59°20' E 018°05'0 0.0
2017-May-25 01:00N 59°20' E 018°05'0 0.0
2017-May-25 00:31N 59°20' E 018°05'0 0.0
2017-May-25 00:00N 59°20' E 018°05'0 0.0
2017-May-24 23:30N 59°20' E 018°05'0 0.0
2017-May-24 23:01N 59°20' E 018°05'0 0.0
2017-May-24 22:30N 59°20' E 018°05'0 0.0
2017-May-24 22:01N 59°20' E 018°05'0 0.0
2017-May-24 21:30N 59°20' E 018°05'510.9
2017-May-24 21:01N 59°21' E 018°15'510.8
2017-May-24 20:30N 59°25' E 018°21'917.3
2017-May-24 19:58N 59°32' E 018°34'612.7
2017-May-24 19:30N 59°34' E 018°45'816.0
2017-May-24 19:01N 59°36' E 019°00'4 8.4
2017-May-24 18:30N 59°36' E 019°09'5 9.2
2017-May-24 18:01N 59°37' E 019°00'3 5.3
2017-May-24 17:30N 59°38' E 018°55'3 6.7
2017-May-24 17:01N 59°35' E 018°51'611.1
2017-May-24 16:31N 59°34' E 018°41'712.6
2017-May-24 15:59N 59°30' E 018°30'714.2
2017-May-24 15:30N 59°25' E 018°21'510.4
2017-May-24 15:01N 59°21' E 018°14'510.5
2017-May-24 14:31N 59°20' E 018°04'6 5.8
2017-May-24 13:30N 59°22' E 018°15'5 9.9
2017-May-24 13:00N 59°26' E 018°22'1014.9
2017-May-24 12:19N 59°33' E 018°35'411.7
2017-May-24 12:00N 59°34' E 018°42'816.5
2017-May-24 11:30N 59°36' E 018°58'612.2
2017-May-24 11:01N 59°36' E 019°10'510.0
2017-May-24 10:30N 59°38' E 019°01'3 5.9
2017-May-24 10:00N 59°40' E 018°58'4 7.3
2017-May-24 09:30N 59°37' E 018°54'5 9.5
2017-May-24 09:00N 59°34' E 018°47'712.5
2017-May-24 08:26N 59°32' E 018°34'715.9
2017-May-24 08:00N 59°27' E 018°25'4 9.0
2017-May-24 07:30N 59°23' E 018°20'713.6
2017-May-24 07:00N 59°19' E 018°09'2 4.4
2017-May-24 06:30N 59°20' E 018°05'0 0.0
2017-May-24 06:00N 59°20' E 018°05'0 0.0
2017-May-24 05:30N 59°20' E 018°05'0 0.0
2017-May-24 05:01N 59°20' E 018°05'0 0.0
2017-May-24 04:30N 59°20' E 018°05'0 0.0
2017-May-24 04:00N 59°20' E 018°05'0 0.0
2017-May-24 03:30N 59°20' E 018°05'0 0.0
2017-May-24 03:00N 59°20' E 018°05'0 0.0
2017-May-24 02:30N 59°20' E 018°05'0 0.0
2017-May-24 02:01N 59°20' E 018°05'0 0.0
2017-May-24 01:31N 59°20' E 018°05'0 0.0
2017-May-24 01:00N 59°20' E 018°05'0 0.0
2017-May-24 00:30N 59°20' E 018°05'0 0.0
2017-May-24 00:00N 59°20' E 018°05'0 0.0
2017-May-23 23:30N 59°20' E 018°05'0 0.0
2017-May-23 23:01N 59°20' E 018°05'0 0.0
2017-May-23 22:30N 59°20' E 018°05'0 0.0
2017-May-23 22:00N 59°20' E 018°05'0 0.0
2017-May-23 21:30N 59°20' E 018°05'0 0.0
2017-May-23 21:00N 59°20' E 018°05'0 0.0
2017-May-23 20:30N 59°20' E 018°05'0 0.0
2017-May-23 20:00N 59°20' E 018°05'0 0.0
2017-May-23 19:31N 59°20' E 018°05'0 0.0
2017-May-23 19:00N 59°20' E 018°05'0 0.0
2017-May-23 18:30N 59°20' E 018°05'0 0.0
2017-May-23 18:00N 59°20' E 018°05'0 0.0
2017-May-23 17:30N 59°20' E 018°05'0 0.0
2017-May-23 17:00N 59°20' E 018°05'0 0.0
2017-May-23 16:30N 59°20' E 018°05'0 0.0
2017-May-23 16:00N 59°20' E 018°05'0 0.0
2017-May-23 15:30N 59°20' E 018°05'2 3.2
2017-May-23 15:00N 59°19' E 018°07'3 6.7
2017-May-23 14:31N 59°18' E 018°14'10 9.9
2017-May-23 13:30N 59°12' E 018°29'2 0.3
2017-May-23 07:37N 59°11' E 018°27'214.8
2017-May-23 07:30N 59°12' E 018°25'711.2
2017-May-23 06:53N 59°18' E 018°17'3 6.6
2017-May-23 06:27N 59°20' E 018°13'4 9.6
2017-May-23 06:00N 59°19' E 018°05'0 0.3
2017-May-23 05:31N 59°20' E 018°05'0 0.3
2017-May-23 05:00N 59°20' E 018°04'0 0.0
2017-May-23 04:30N 59°20' E 018°04'0 0.0
2017-May-23 04:00N 59°20' E 018°04'0 0.0
2017-May-23 03:30N 59°20' E 018°04'0 0.0
2017-May-23 03:00N 59°20' E 018°04'0 0.0
2017-May-23 02:30N 59°20' E 018°04'0 0.0
2017-May-23 02:00N 59°20' E 018°04'0 0.0
2017-May-23 01:30N 59°20' E 018°04'0 0.0
2017-May-23 01:00N 59°20' E 018°04'0 0.0
2017-May-23 00:30N 59°20' E 018°04'0 0.0
2017-May-23 00:00N 59°20' E 018°04'0 0.0
2017-May-22 23:30N 59°20' E 018°04'0 0.0
2017-May-22 23:00N 59°20' E 018°04'0 0.0
2017-May-22 22:30N 59°20' E 018°04'0 0.0
2017-May-22 22:00N 59°20' E 018°04'0 0.0
2017-May-22 21:30N 59°20' E 018°04'0 0.0
2017-May-22 21:00N 59°20' E 018°04'0 0.0
2017-May-22 20:30N 59°20' E 018°04'0 0.0
2017-May-22 20:00N 59°20' E 018°04'0 0.0
2017-May-22 19:30N 59°20' E 018°04'0 0.0
2017-May-22 19:00N 59°20' E 018°04'0 0.0
2017-May-22 18:30N 59°20' E 018°04'0 0.0
2017-May-22 18:00N 59°20' E 018°04'0 0.0
2017-May-22 17:30N 59°20' E 018°04'0 0.0
2017-May-22 17:00N 59°20' E 018°04'0 0.0
2017-May-22 16:30N 59°20' E 018°04'0 0.2
2017-May-22 16:00N 59°20' E 018°05'0 0.0
2017-May-22 15:30N 59°20' E 018°05'3 5.4
2017-May-22 15:00N 59°19' E 018°10'7 6.7
2017-May-22 14:01N 59°16' E 018°21'6 0.9
2017-May-22 07:34N 59°11' E 018°27'214.5
2017-May-22 07:27N 59°12' E 018°25'715.3
2017-May-22 07:00N 59°18' E 018°18'3 5.4
2017-May-22 06:30N 59°19' E 018°13'4 9.0
2017-May-22 06:00N 59°19' E 018°05'0 0.4
2017-May-22 05:31N 59°20' E 018°05'0 0.1
2017-May-22 05:01N 59°20' E 018°04'0 0.0
2017-May-22 04:30N 59°20' E 018°04'0 0.0
2017-May-22 04:00N 59°20' E 018°04'0 0.0
2017-May-22 03:30N 59°20' E 018°04'0 0.0
2017-May-22 03:00N 59°20' E 018°04'0 0.0
2017-May-22 02:30N 59°20' E 018°04'0 0.0
2017-May-22 02:00N 59°20' E 018°04'0 0.0
2017-May-22 01:30N 59°20' E 018°04'0 0.0
2017-May-22 01:00N 59°20' E 018°04'0 0.0
2017-May-22 00:30N 59°20' E 018°04'0 0.0
2017-May-22 00:00N 59°20' E 018°04'0 0.0
2017-May-21 23:30N 59°20' E 018°04'0 0.0
2017-May-21 23:00N 59°20' E 018°04'0 0.0
2017-May-21 22:30N 59°20' E 018°04'0 0.0
2017-May-21 22:00N 59°20' E 018°04'0 0.0
2017-May-21 21:30N 59°20' E 018°04'0 0.0
2017-May-21 21:00N 59°20' E 018°04'0 0.0
2017-May-21 20:30N 59°20' E 018°04'0 0.0
2017-May-21 20:00N 59°20' E 018°04'0 0.0
2017-May-21 19:30N 59°20' E 018°04'0 0.0
2017-May-21 19:01N 59°20' E 018°04'0 0.0
2017-May-21 18:31N 59°20' E 018°04'0 0.0
2017-May-21 18:01N 59°20' E 018°04'0 0.2
2017-May-21 17:30N 59°20' E 018°05'2 3.4
2017-May-21 17:01N 59°19' E 018°08'611.2
2017-May-21 16:31N 59°22' E 018°17'5 9.0
2017-May-21 16:00N 59°26' E 018°22'2 0.4
2017-May-21 10:09N 59°27' E 018°26'217.2
2017-May-21 10:00N 59°26' E 018°22'4 7.6
2017-May-21 09:30N 59°23' E 018°17'611.5
2017-May-21 09:01N 59°19' E 018°08'2 4.1
2017-May-21 08:30N 59°20' E 018°05'0 0.0
2017-May-21 08:01N 59°20' E 018°05'0 0.0
2017-May-21 07:30N 59°20' E 018°05'0 0.0
2017-May-21 07:00N 59°20' E 018°05'0 0.0
2017-May-21 06:30N 59°20' E 018°05'0 0.0
2017-May-21 06:01N 59°20' E 018°05'0 0.0
2017-May-21 05:30N 59°20' E 018°05'0 0.0
2017-May-21 05:00N 59°20' E 018°05'0 0.0
2017-May-21 04:30N 59°20' E 018°05'0 0.0
2017-May-21 04:01N 59°20' E 018°05'0 0.0
2017-May-21 03:31N 59°20' E 018°05'0 0.0
2017-May-21 03:00N 59°20' E 018°05'0 0.0
2017-May-21 02:30N 59°20' E 018°05'0 0.0
2017-May-21 02:00N 59°20' E 018°05'0 0.0
2017-May-21 01:31N 59°20' E 018°05'0 0.0
2017-May-21 01:00N 59°20' E 018°05'0 0.0
2017-May-21 00:30N 59°20' E 018°05'0 0.0
2017-May-21 00:00N 59°20' E 018°05'0 0.0
2017-May-20 23:30N 59°20' E 018°05'0 0.0
2017-May-20 23:00N 59°20' E 018°05'0 0.0
2017-May-20 22:30N 59°20' E 018°05'0 0.0
2017-May-20 22:00N 59°20' E 018°05'0 0.0
2017-May-20 21:30N 59°20' E 018°05'0 0.2
2017-May-20 21:00N 59°20' E 018°04'510.4
2017-May-20 20:30N 59°21' E 018°14'5 9.3
2017-May-20 19:59N 59°24' E 018°22'0 0.8
2017-May-20 19:30N 59°24' E 018°21'0 0.0
2017-May-20 19:00N 59°24' E 018°21'0 0.0
2017-May-20 18:30N 59°24' E 018°21'0 0.0
2017-May-20 18:00N 59°24' E 018°21'0 0.2
2017-May-20 17:27N 59°24' E 018°22'0 0.2
2017-May-20 16:55N 59°24' E 018°21'614.9
2017-May-20 16:30N 59°20' E 018°12'4 8.1
2017-May-20 16:00N 59°20' E 018°04'0 0.0
2017-May-20 15:30N 59°20' E 018°04'0 0.0
2017-May-20 15:00N 59°20' E 018°04'0 0.0
2017-May-20 14:30N 59°20' E 018°04'0 0.0
2017-May-20 13:30N 59°20' E 018°04'0 0.0
2017-May-20 13:00N 59°20' E 018°04'0 0.0
2017-May-20 12:30N 59°20' E 018°04'0 0.0
2017-May-20 12:00N 59°20' E 018°04'0 0.0
2017-May-20 11:30N 59°20' E 018°04'0 0.0
2017-May-20 11:00N 59°20' E 018°04'0 0.0
2017-May-20 10:30N 59°20' E 018°04'0 0.0
2017-May-20 10:00N 59°20' E 018°04'0 0.0
2017-May-20 09:30N 59°20' E 018°04'0 0.0
2017-May-20 09:00N 59°20' E 018°04'0 0.0
2017-May-20 08:30N 59°20' E 018°04'0 0.0
2017-May-20 08:00N 59°20' E 018°04'0 0.0
2017-May-20 07:30N 59°20' E 018°04'0 0.0
2017-May-20 07:00N 59°20' E 018°04'0 0.0
2017-May-20 06:30N 59°20' E 018°04'0 0.0
2017-May-20 06:00N 59°20' E 018°04'0 0.0
2017-May-20 05:30N 59°20' E 018°04'0 0.0
2017-May-20 05:00N 59°20' E 018°04'0 0.0
2017-May-20 04:30N 59°20' E 018°04'0 0.0
2017-May-20 04:00N 59°20' E 018°04'0 0.0
2017-May-20 03:30N 59°20' E 018°04'0 0.0
2017-May-20 03:00N 59°20' E 018°04'0 0.0
2017-May-20 02:30N 59°20' E 018°04'0 0.0
2017-May-20 02:00N 59°20' E 018°04'0 0.0
2017-May-20 01:30N 59°20' E 018°04'0 0.0
2017-May-20 01:00N 59°20' E 018°04'0 0.0
2017-May-20 00:30N 59°20' E 018°04'0 0.0
2017-May-20 00:00N 59°20' E 018°04'0 0.0
2017-May-19 23:30N 59°20' E 018°04'0 0.0
2017-May-19 23:00N 59°20' E 018°04'0 0.0
2017-May-19 22:30N 59°20' E 018°04'0 0.0
2017-May-19 22:00N 59°20' E 018°04'0 0.0
2017-May-19 21:30N 59°20' E 018°04'0 0.0
2017-May-19 21:00N 59°20' E 018°04'0 0.0
2017-May-19 20:30N 59°20' E 018°04'0 0.0
2017-May-19 20:00N 59°20' E 018°04'0 0.0
2017-May-19 19:30N 59°20' E 018°04'0 0.0
2017-May-19 19:00N 59°20' E 018°04'0 0.0
2017-May-19 18:30N 59°20' E 018°04'0 0.0
2017-May-19 18:00N 59°20' E 018°04'0 0.0
2017-May-19 17:30N 59°20' E 018°04'0 0.0
2017-May-19 17:00N 59°20' E 018°04'0 0.0
2017-May-19 16:30N 59°20' E 018°04'0 0.0
2017-May-19 16:00N 59°20' E 018°04'0 0.0
2017-May-19 15:30N 59°20' E 018°04'0 0.0
2017-May-19 15:00N 59°20' E 018°04'0 0.0
2017-May-19 14:00N 59°20' E 018°04'0 0.0
2017-May-19 13:30N 59°20' E 018°04'0 0.0
2017-May-19 13:00N 59°20' E 018°04'0 0.0
2017-May-19 12:30N 59°20' E 018°04'0 0.0
2017-May-19 12:00N 59°20' E 018°04'0 0.0
2017-May-19 11:30N 59°20' E 018°04'0 0.0
2017-May-19 11:00N 59°20' E 018°04'0 0.0
2017-May-19 10:30N 59°20' E 018°04'0 0.0
2017-May-19 10:00N 59°20' E 018°04'0 0.0
2017-May-19 09:30N 59°20' E 018°04'0 0.0
2017-May-19 09:00N 59°20' E 018°04'0 0.0
2017-May-19 08:30N 59°20' E 018°04'0 0.0
2017-May-19 08:00N 59°20' E 018°04'0 0.0
2017-May-19 07:30N 59°20' E 018°04'0 0.0
2017-May-19 07:00N 59°20' E 018°04'0 0.0
2017-May-19 06:30N 59°20' E 018°04'0 0.0
2017-May-19 06:00N 59°20' E 018°04'0 0.0
2017-May-19 05:30N 59°20' E 018°04'0 0.0
2017-May-19 05:00N 59°20' E 018°04'0 0.0
2017-May-19 04:30N 59°20' E 018°04'0 0.0
2017-May-19 04:00N 59°20' E 018°04'0 0.0
2017-May-19 03:30N 59°20' E 018°04'0 0.0
2017-May-19 03:00N 59°20' E 018°04'0 0.0
2017-May-19 02:30N 59°20' E 018°04'0 0.0
2017-May-19 02:00N 59°20' E 018°04'0 0.0
2017-May-19 01:30N 59°20' E 018°04'0 0.0
2017-May-19 01:00N 59°20' E 018°04'0 0.0
2017-May-19 00:30N 59°20' E 018°04'0 0.0
2017-May-19 00:00N 59°20' E 018°04'0 0.0
2017-May-18 23:30N 59°20' E 018°04'0 0.0
2017-May-18 23:00N 59°20' E 018°04'0 0.0
2017-May-18 22:30N 59°20' E 018°04'0 0.0
2017-May-18 22:00N 59°20' E 018°04'0 0.0
2017-May-18 21:30N 59°20' E 018°04'0 0.0
2017-May-18 21:00N 59°20' E 018°04'0 0.0
2017-May-18 20:30N 59°20' E 018°04'0 0.0
2017-May-18 20:00N 59°20' E 018°04'0 0.0
2017-May-18 19:30N 59°20' E 018°04'0 0.0
2017-May-18 19:00N 59°20' E 018°04'0 0.0
2017-May-18 18:30N 59°20' E 018°04'0 0.0
2017-May-18 18:00N 59°20' E 018°04'0 0.0
2017-May-18 17:30N 59°20' E 018°04'0 0.0
2017-May-18 17:00N 59°20' E 018°04'1 1.5
2017-May-18 16:30N 59°19' E 018°06'1 2.6
2017-May-18 16:00N 59°18' E 018°04'1 2.9
2017-May-18 15:30N 59°20' E 018°03'2 4.3
2017-May-18 15:00N 59°19' E 017°59'2 1.7
2017-May-18 14:00N 59°19' E 018°02'2 3.4
2017-May-18 13:30N 59°18' E 018°05'1 2.8
2017-May-18 13:00N 59°20' E 018°04'0 0.0
2017-May-18 12:30N 59°20' E 018°04'0 0.0
2017-May-18 12:00N 59°20' E 018°04'0 0.0
2017-May-18 11:30N 59°20' E 018°04'0 0.0
2017-May-18 11:00N 59°20' E 018°04'0 0.0
2017-May-18 10:30N 59°20' E 018°04'0 0.0
2017-May-18 10:00N 59°20' E 018°04'0 0.0
2017-May-18 09:30N 59°20' E 018°04'0 0.0
2017-May-18 09:00N 59°20' E 018°04'0 0.0
2017-May-18 08:30N 59°20' E 018°04'0 0.0
2017-May-18 08:00N 59°20' E 018°04'0 0.0
2017-May-18 07:30N 59°20' E 018°04'0 0.0
2017-May-18 07:00N 59°20' E 018°04'0 0.0
2017-May-18 06:30N 59°20' E 018°04'0 0.0
2017-May-18 06:00N 59°20' E 018°04'0 0.0
2017-May-18 05:30N 59°20' E 018°04'0 0.0
2017-May-18 05:00N 59°20' E 018°04'0 0.0
2017-May-18 04:30N 59°20' E 018°04'0 0.0
2017-May-18 04:00N 59°20' E 018°04'0 0.0
2017-May-18 03:30N 59°20' E 018°04'0 0.0
2017-May-18 03:00N 59°20' E 018°04'0 0.0
2017-May-18 02:30N 59°20' E 018°04'0 0.0
2017-May-18 02:00N 59°20' E 018°04'0 0.0
2017-May-18 01:30N 59°20' E 018°04'0 0.0
2017-May-18 01:00N 59°20' E 018°04'  
Track history (hours):
 
Tides and Currents Weather Stations Pressure Air Temp Water Temp Dewpoint Dewpoint Depression Visibility Wind Speed Wind Dir Waves Ship Positions

Sjobris

Last reported at 2017-May-28 01:00 UTC. Time now 2017-May-28 01:08 UTC.
Position N 59°20' E 018°05'.

Length 38 m.

Type: Passenger vessel. MMSI: 265522700.

Date/timePositionNaut miles runAvg speedWind from/ knotsBaromVisibWave heightAir tempDewpointWater temp
2017-May-28 01:00N 59°20' E 018°05'0 0.0
2017-May-28 00:30N 59°20' E 018°05'0 0.0
2017-May-28 00:00N 59°20' E 018°05'0 0.0
2017-May-27 23:30N 59°20' E 018°05'0 0.0
2017-May-27 23:00N 59°20' E 018°05'0 0.0
2017-May-27 22:30N 59°20' E 018°05'0 0.0
2017-May-27 22:00N 59°20' E 018°05'0 0.0
2017-May-27 21:30N 59°20' E 018°05'0 0.0
2017-May-27 21:00N 59°20' E 018°05'0 0.0
2017-May-27 20:30N 59°20' E 018°05'0 0.0
2017-May-27 20:00N 59°20' E 018°05'0 0.0
2017-May-27 19:30N 59°20' E 018°05'0 0.0
2017-May-27 19:00N 59°20' E 018°05'0 0.0
2017-May-27 18:30N 59°20' E 018°05'0 0.0
2017-May-27 18:00N 59°20' E 018°05'0 0.0
2017-May-27 17:30N 59°20' E 018°05'0 0.0
2017-May-27 17:00N 59°20' E 018°05'0 0.0
2017-May-27 16:30N 59°20' E 018°05'3 6.1
2017-May-27 16:00N 59°20' E 018°11'612.5
2017-May-27 15:30N 59°23' E 018°20'5 9.3
2017-May-27 15:01N 59°27' E 018°26'713.8
2017-May-27 14:28N 59°33' E 018°35'1111.0
2017-May-27 13:30N 59°38' E 018°54'4 8.5
2017-May-27 13:00N 59°41' E 018°59'3 6.5
2017-May-27 12:30N 59°38' E 019°01'510.5
2017-May-27 12:00N 59°36' E 019°10'0 0.2
2017-May-27 11:30N 59°36' E 019°10'0 0.0
2017-May-27 11:00N 59°36' E 019°10'510.5
2017-May-27 10:31N 59°38' E 019°01'3 6.1
2017-May-27 10:00N 59°40' E 018°58'4 7.9
2017-May-27 09:31N 59°37' E 018°53'5 9.2
2017-May-27 09:00N 59°34' E 018°47'612.2
2017-May-27 08:29N 59°33' E 018°35'715.1
2017-May-27 08:00N 59°27' E 018°26'510.2
2017-May-27 07:30N 59°23' E 018°20'713.7
2017-May-27 07:00N 59°19' E 018°09'2 4.6
2017-May-27 06:30N 59°20' E 018°05'0 0.0
2017-May-27 06:00N 59°20' E 018°05'0 0.0
2017-May-27 05:30N 59°20' E 018°05'0 0.0
2017-May-27 05:00N 59°20' E 018°05'0 0.0
2017-May-27 04:30N 59°20' E 018°05'0 0.0
2017-May-27 04:00N 59°20' E 018°05'0 0.0
2017-May-27 03:30N 59°20' E 018°05'0 0.0
2017-May-27 03:00N 59°20' E 018°05'0 0.0
2017-May-27 02:30N 59°20' E 018°05'0 0.0
2017-May-27 02:00N 59°20' E 018°05'0 0.0
2017-May-27 01:30N 59°20' E 018°05'0 0.0
2017-May-27 01:00N 59°20' E 018°05'0 0.0
2017-May-27 00:30N 59°20' E 018°05'0 0.0
2017-May-27 00:00N 59°20' E 018°05'0 0.0
2017-May-26 23:30N 59°20' E 018°05'0 0.0
2017-May-26 23:00N 59°20' E 018°05'0 0.0
2017-May-26 22:30N 59°20' E 018°05'0 0.0
2017-May-26 22:00N 59°20' E 018°05'2 4.8
2017-May-26 21:30N 59°19' E 018°09'815.2
2017-May-26 21:00N 59°24' E 018°21'612.4
2017-May-26 20:30N 59°29' E 018°27'714.6
2017-May-26 20:00N 59°34' E 018°38'611.8
2017-May-26 19:31N 59°34' E 018°50'918.4
2017-May-26 19:00N 59°36' E 019°08'2 4.9
2017-May-26 18:31N 59°35' E 019°04'5 9.3
2017-May-26 18:00N 59°39' E 018°60'3 6.8
2017-May-26 17:30N 59°38' E 018°54'3 6.4
2017-May-26 17:00N 59°35' E 018°50'612.6
2017-May-26 16:31N 59°34' E 018°38'712.9
2017-May-26 15:59N 59°28' E 018°29'612.5
2017-May-26 15:30N 59°24' E 018°21'5 9.8
2017-May-26 15:00N 59°21' E 018°14'510.0
2017-May-26 14:31N 59°20' E 018°05'7 7.4
2017-May-26 13:30N 59°23' E 018°18'510.5
2017-May-26 13:00N 59°27' E 018°25'915.0
2017-May-26 12:24N 59°33' E 018°37'512.9
2017-May-26 11:59N 59°35' E 018°47'919.1
2017-May-26 11:30N 59°36' E 019°05'1 2.6
2017-May-26 11:00N 59°35' E 019°05'4 8.7
2017-May-26 10:31N 59°39' E 019°01'3 5.2
2017-May-26 10:00N 59°39' E 018°56'3 6.2
2017-May-26 09:30N 59°36' E 018°52'4 8.6
2017-May-26 09:00N 59°34' E 018°45'611.1
2017-May-26 08:30N 59°32' E 018°34'714.4
2017-May-26 07:59N 59°27' E 018°25'4 8.8
2017-May-26 07:30N 59°23' E 018°20'714.0
2017-May-26 07:00N 59°19' E 018°09'2 4.8
2017-May-26 06:30N 59°20' E 018°04'0 0.0
2017-May-26 06:00N 59°20' E 018°04'0 0.0
2017-May-26 05:30N 59°20' E 018°04'0 0.0
2017-May-26 05:00N 59°20' E 018°04'0 0.0
2017-May-26 04:30N 59°20' E 018°04'0 0.0
2017-May-26 04:00N 59°20' E 018°04'0 0.0
2017-May-26 03:30N 59°20' E 018°04'0 0.0
2017-May-26 03:00N 59°20' E 018°04'0 0.0
2017-May-26 02:30N 59°20' E 018°04'0 0.0
2017-May-26 02:00N 59°20' E 018°04'0 0.0
2017-May-26 01:30N 59°20' E 018°04'0 0.0
2017-May-26 01:00N 59°20' E 018°04'0 0.0
2017-May-26 00:30N 59°20' E 018°04'0 0.0
2017-May-26 00:00N 59°20' E 018°04'0 0.0
2017-May-25 23:30N 59°20' E 018°04'0 0.0
2017-May-25 23:00N 59°20' E 018°04'0 0.0
2017-May-25 22:30N 59°20' E 018°04'0 0.0
2017-May-25 22:00N 59°20' E 018°04'0 0.0
2017-May-25 21:30N 59°20' E 018°04'0 0.0
2017-May-25 21:00N 59°20' E 018°04'0 0.0
2017-May-25 20:30N 59°20' E 018°04'0 0.0
2017-May-25 20:00N 59°20' E 018°04'0 0.0
2017-May-25 19:30N 59°20' E 018°04'0 0.0
2017-May-25 19:00N 59°20' E 018°04'0 0.0
2017-May-25 18:30N 59°20' E 018°04'0 0.0
2017-May-25 18:00N 59°20' E 018°04'0 0.0
2017-May-25 17:30N 59°20' E 018°04'1 2.2
2017-May-25 17:00N 59°19' E 018°06'713.1
2017-May-25 16:30N 59°22' E 018°18'4 8.6
2017-May-25 16:00N 59°26' E 018°22'612.4
2017-May-25 15:30N 59°30' E 018°31'612.0
2017-May-25 15:00N 59°34' E 018°39'611.4
2017-May-25 14:30N 59°38' E 018°48'6 6.0
2017-May-25 13:30N 59°37' E 019°00'510.3
2017-May-25 13:00N 59°36' E 019°10'2 4.8
2017-May-25 12:30N 59°35' E 019°06'4 8.4
2017-May-25 12:00N 59°38' E 019°00'3 5.1
2017-May-25 11:31N 59°38' E 018°55'3 5.8
2017-May-25 11:01N 59°36' E 018°51'4 7.2
2017-May-25 10:31N 59°34' E 018°46'610.4
2017-May-25 09:53N 59°32' E 018°34'512.6
2017-May-25 09:28N 59°28' E 018°28'510.1
2017-May-25 09:00N 59°24' E 018°21'5 9.6
2017-May-25 08:30N 59°21' E 018°15'510.6
2017-May-25 08:01N 59°20' E 018°05'0 0.0
2017-May-25 07:30N 59°20' E 018°05'0 0.0
2017-May-25 07:01N 59°20' E 018°05'0 0.0
2017-May-25 06:30N 59°20' E 018°05'0 0.0
2017-May-25 06:00N 59°20' E 018°05'0 0.0
2017-May-25 05:30N 59°20' E 018°05'0 0.0
2017-May-25 05:00N 59°20' E 018°05'0 0.0
2017-May-25 04:31N 59°20' E 018°05'0 0.0
2017-May-25 04:01N 59°20' E 018°05'0 0.0
2017-May-25 03:30N 59°20' E 018°05'0 0.0
2017-May-25 03:00N 59°20' E 018°05'0 0.0
2017-May-25 02:31N 59°20' E 018°05'0 0.0
2017-May-25 02:00N 59°20' E 018°05'0 0.0
2017-May-25 01:30N 59°20' E 018°05'0 0.0
2017-May-25 01:00N 59°20' E 018°05'0 0.0
2017-May-25 00:31N 59°20' E 018°05'0 0.0
2017-May-25 00:00N 59°20' E 018°05'0 0.0
2017-May-24 23:30N 59°20' E 018°05'0 0.0
2017-May-24 23:01N 59°20' E 018°05'0 0.0
2017-May-24 22:30N 59°20' E 018°05'0 0.0
2017-May-24 22:01N 59°20' E 018°05'0 0.0
2017-May-24 21:30N 59°20' E 018°05'510.9
2017-May-24 21:01N 59°21' E 018°15'510.8
2017-May-24 20:30N 59°25' E 018°21'917.3
2017-May-24 19:58N 59°32' E 018°34'612.7
2017-May-24 19:30N 59°34' E 018°45'816.0
2017-May-24 19:01N 59°36' E 019°00'4 8.4
2017-May-24 18:30N 59°36' E 019°09'5 9.2
2017-May-24 18:01N 59°37' E 019°00'3 5.3
2017-May-24 17:30N 59°38' E 018°55'3 6.7
2017-May-24 17:01N 59°35' E 018°51'611.1
2017-May-24 16:31N 59°34' E 018°41'712.6
2017-May-24 15:59N 59°30' E 018°30'714.2
2017-May-24 15:30N 59°25' E 018°21'510.4
2017-May-24 15:01N 59°21' E 018°14'510.5
2017-May-24 14:31N 59°20' E 018°04'6 5.8
2017-May-24 13:30N 59°22' E 018°15'5 9.9
2017-May-24 13:00N 59°26' E 018°22'1014.9
2017-May-24 12:19N 59°33' E 018°35'411.7
2017-May-24 12:00N 59°34' E 018°42'816.5
2017-May-24 11:30N 59°36' E 018°58'612.2
2017-May-24 11:01N 59°36' E 019°10'510.0
2017-May-24 10:30N 59°38' E 019°01'3 5.9
2017-May-24 10:00N 59°40' E 018°58'4 7.3
2017-May-24 09:30N 59°37' E 018°54'5 9.5
2017-May-24 09:00N 59°34' E 018°47'712.5
2017-May-24 08:26N 59°32' E 018°34'715.9
2017-May-24 08:00N 59°27' E 018°25'4 9.0
2017-May-24 07:30N 59°23' E 018°20'713.6
2017-May-24 07:00N 59°19' E 018°09'2 4.4
2017-May-24 06:30N 59°20' E 018°05'0 0.0
2017-May-24 06:00N 59°20' E 018°05'0 0.0
2017-May-24 05:30N 59°20' E 018°05'0 0.0
2017-May-24 05:01N 59°20' E 018°05'0 0.0
2017-May-24 04:30N 59°20' E 018°05'0 0.0
2017-May-24 04:00N 59°20' E 018°05'0 0.0
2017-May-24 03:30N 59°20' E 018°05'0 0.0
2017-May-24 03:00N 59°20' E 018°05'0 0.0
2017-May-24 02:30N 59°20' E 018°05'0 0.0
2017-May-24 02:01N 59°20' E 018°05'0 0.0
2017-May-24 01:31N 59°20' E 018°05'0 0.0
2017-May-24 01:00N 59°20' E 018°05'0 0.0
2017-May-24 00:30N 59°20' E 018°05'0 0.0
2017-May-24 00:00N 59°20' E 018°05'0 0.0
2017-May-23 23:30N 59°20' E 018°05'0 0.0
2017-May-23 23:01N 59°20' E 018°05'0 0.0
2017-May-23 22:30N 59°20' E 018°05'0 0.0
2017-May-23 22:00N 59°20' E 018°05'0 0.0
2017-May-23 21:30N 59°20' E 018°05'0 0.0
2017-May-23 21:00N 59°20' E 018°05'0 0.0
2017-May-23 20:30N 59°20' E 018°05'0 0.0
2017-May-23 20:00N 59°20' E 018°05'0 0.0
2017-May-23 19:31N 59°20' E 018°05'0 0.0
2017-May-23 19:00N 59°20' E 018°05'0 0.0
2017-May-23 18:30N 59°20' E 018°05'0 0.0
2017-May-23 18:00N 59°20' E 018°05'0 0.0
2017-May-23 17:30N 59°20' E 018°05'0 0.0
2017-May-23 17:00N 59°20' E 018°05'0 0.0
2017-May-23 16:30N 59°20' E 018°05'0 0.0
2017-May-23 16:00N 59°20' E 018°05'0 0.0
2017-May-23 15:30N 59°20' E 018°05'2 3.2
2017-May-23 15:00N 59°19' E 018°07'3 6.7
2017-May-23 14:31N 59°18' E 018°14'10 9.9
2017-May-23 13:30N 59°12' E 018°29'2 0.3
2017-May-23 07:37N 59°11' E 018°27'214.8
2017-May-23 07:30N 59°12' E 018°25'711.2
2017-May-23 06:53N 59°18' E 018°17'3 6.6
2017-May-23 06:27N 59°20' E 018°13'4 9.6
2017-May-23 06:00N 59°19' E 018°05'0 0.3
2017-May-23 05:31N 59°20' E 018°05'0 0.3
2017-May-23 05:00N 59°20' E 018°04'0 0.0
2017-May-23 04:30N 59°20' E 018°04'0 0.0
2017-May-23 04:00N 59°20' E 018°04'0 0.0
2017-May-23 03:30N 59°20' E 018°04'0 0.0
2017-May-23 03:00N 59°20' E 018°04'0 0.0
2017-May-23 02:30N 59°20' E 018°04'0 0.0
2017-May-23 02:00N 59°20' E 018°04'0 0.0
2017-May-23 01:30N 59°20' E 018°04'0 0.0
2017-May-23 01:00N 59°20' E 018°04'0 0.0
2017-May-23 00:30N 59°20' E 018°04'0 0.0
2017-May-23 00:00N 59°20' E 018°04'0 0.0
2017-May-22 23:30N 59°20' E 018°04'0 0.0
2017-May-22 23:00N 59°20' E 018°04'0 0.0
2017-May-22 22:30N 59°20' E 018°04'0 0.0
2017-May-22 22:00N 59°20' E 018°04'0 0.0
2017-May-22 21:30N 59°20' E 018°04'0 0.0
2017-May-22 21:00N 59°20' E 018°04'0 0.0
2017-May-22 20:30N 59°20' E 018°04'0 0.0
2017-May-22 20:00N 59°20' E 018°04'0 0.0
2017-May-22 19:30N 59°20' E 018°04'0 0.0
2017-May-22 19:00N 59°20' E 018°04'0 0.0
2017-May-22 18:30N 59°20' E 018°04'0 0.0
2017-May-22 18:00N 59°20' E 018°04'0 0.0
2017-May-22 17:30N 59°20' E 018°04'0 0.0
2017-May-22 17:00N 59°20' E 018°04'0 0.0
2017-May-22 16:30N 59°20' E 018°04'0 0.2
2017-May-22 16:00N 59°20' E 018°05'0 0.0
2017-May-22 15:30N 59°20' E 018°05'3 5.4
2017-May-22 15:00N 59°19' E 018°10'7 6.7
2017-May-22 14:01N 59°16' E 018°21'6 0.9
2017-May-22 07:34N 59°11' E 018°27'214.5
2017-May-22 07:27N 59°12' E 018°25'715.3
2017-May-22 07:00N 59°18' E 018°18'3 5.4
2017-May-22 06:30N 59°19' E 018°13'4 9.0
2017-May-22 06:00N 59°19' E 018°05'0 0.4
2017-May-22 05:31N 59°20' E 018°05'0 0.1
2017-May-22 05:01N 59°20' E 018°04'0 0.0
2017-May-22 04:30N 59°20' E 018°04'0 0.0
2017-May-22 04:00N 59°20' E 018°04'0 0.0
2017-May-22 03:30N 59°20' E 018°04'0 0.0
2017-May-22 03:00N 59°20' E 018°04'0 0.0
2017-May-22 02:30N 59°20' E 018°04'0 0.0
2017-May-22 02:00N 59°20' E 018°04'0 0.0
2017-May-22 01:30N 59°20' E 018°04'0 0.0
2017-May-22 01:00N 59°20' E 018°04'0 0.0
2017-May-22 00:30N 59°20' E 018°04'0 0.0
2017-May-22 00:00N 59°20' E 018°04'0 0.0
2017-May-21 23:30N 59°20' E 018°04'0 0.0
2017-May-21 23:00N 59°20' E 018°04'0 0.0
2017-May-21 22:30N 59°20' E 018°04'0 0.0
2017-May-21 22:00N 59°20' E 018°04'0 0.0
2017-May-21 21:30N 59°20' E 018°04'0 0.0
2017-May-21 21:00N 59°20' E 018°04'0 0.0
2017-May-21 20:30N 59°20' E 018°04'0 0.0
2017-May-21 20:00N 59°20' E 018°04'0 0.0
2017-May-21 19:30N 59°20' E 018°04'0 0.0
2017-May-21 19:01N 59°20' E 018°04'0 0.0
2017-May-21 18:31N 59°20' E 018°04'0 0.0
2017-May-21 18:01N 59°20' E 018°04'0 0.2
2017-May-21 17:30N 59°20' E 018°05'2 3.4
2017-May-21 17:01N 59°19' E 018°08'611.2
2017-May-21 16:31N 59°22' E 018°17'5 9.0
2017-May-21 16:00N 59°26' E 018°22'2 0.4
2017-May-21 10:09N 59°27' E 018°26'217.2
2017-May-21 10:00N 59°26' E 018°22'4 7.6
2017-May-21 09:30N 59°23' E 018°17'611.5
2017-May-21 09:01N 59°19' E 018°08'2 4.1
2017-May-21 08:30N 59°20' E 018°05'0 0.0
2017-May-21 08:01N 59°20' E 018°05'0 0.0
2017-May-21 07:30N 59°20' E 018°05'0 0.0
2017-May-21 07:00N 59°20' E 018°05'0 0.0
2017-May-21 06:30N 59°20' E 018°05'0 0.0
2017-May-21 06:01N 59°20' E 018°05'0 0.0
2017-May-21 05:30N 59°20' E 018°05'0 0.0
2017-May-21 05:00N 59°20' E 018°05'0 0.0
2017-May-21 04:30N 59°20' E 018°05'0 0.0
2017-May-21 04:01N 59°20' E 018°05'0 0.0
2017-May-21 03:31N 59°20' E 018°05'0 0.0
2017-May-21 03:00N 59°20' E 018°05'0 0.0
2017-May-21 02:30N 59°20' E 018°05'0 0.0
2017-May-21 02:00N 59°20' E 018°05'0 0.0
2017-May-21 01:31N 59°20' E 018°05'0 0.0
2017-May-21 01:00N 59°20' E 018°05'0 0.0
2017-May-21 00:30N 59°20' E 018°05'0 0.0
2017-May-21 00:00N 59°20' E 018°05'0 0.0
2017-May-20 23:30N 59°20' E 018°05'0 0.0
2017-May-20 23:00N 59°20' E 018°05'0 0.0
2017-May-20 22:30N 59°20' E 018°05'0 0.0
2017-May-20 22:00N 59°20' E 018°05'0 0.0
2017-May-20 21:30N 59°20' E 018°05'0 0.2
2017-May-20 21:00N 59°20' E 018°04'510.4
2017-May-20 20:30N 59°21' E 018°14'5 9.3
2017-May-20 19:59N 59°24' E 018°22'0 0.8
2017-May-20 19:30N 59°24' E 018°21'0 0.0
2017-May-20 19:00N 59°24' E 018°21'0 0.0
2017-May-20 18:30N 59°24' E 018°21'0 0.0
2017-May-20 18:00N 59°24' E 018°21'0 0.2
2017-May-20 17:27N 59°24' E 018°22'0 0.2
2017-May-20 16:55N 59°24' E 018°21'614.9
2017-May-20 16:30N 59°20' E 018°12'4 8.1
2017-May-20 16:00N 59°20' E 018°04'0 0.0
2017-May-20 15:30N 59°20' E 018°04'0 0.0
2017-May-20 15:00N 59°20' E 018°04'0 0.0
2017-May-20 14:30N 59°20' E 018°04'0 0.0
2017-May-20 13:30N 59°20' E 018°04'0 0.0
2017-May-20 13:00N 59°20' E 018°04'0 0.0
2017-May-20 12:30N 59°20' E 018°04'0 0.0
2017-May-20 12:00N 59°20' E 018°04'0 0.0
2017-May-20 11:30N 59°20' E 018°04'0 0.0
2017-May-20 11:00N 59°20' E 018°04'0 0.0
2017-May-20 10:30N 59°20' E 018°04'0 0.0
2017-May-20 10:00N 59°20' E 018°04'0 0.0
2017-May-20 09:30N 59°20' E 018°04'0 0.0
2017-May-20 09:00N 59°20' E 018°04'0 0.0
2017-May-20 08:30N 59°20' E 018°04'0 0.0
2017-May-20 08:00N 59°20' E 018°04'0 0.0
2017-May-20 07:30N 59°20' E 018°04'0 0.0
2017-May-20 07:00N 59°20' E 018°04'0 0.0
2017-May-20 06:30N 59°20' E 018°04'0 0.0
2017-May-20 06:00N 59°20' E 018°04'0 0.0
2017-May-20 05:30N 59°20' E 018°04'0 0.0
2017-May-20 05:00N 59°20' E 018°04'0 0.0
2017-May-20 04:30N 59°20' E 018°04'0 0.0
2017-May-20 04:00N 59°20' E 018°04'0 0.0
2017-May-20 03:30N 59°20' E 018°04'0 0.0
2017-May-20 03:00N 59°20' E 018°04'0 0.0
2017-May-20 02:30N 59°20' E 018°04'0 0.0
2017-May-20 02:00N 59°20' E 018°04'0 0.0
2017-May-20 01:30N 59°20' E 018°04'0 0.0
2017-May-20 01:00N 59°20' E 018°04'0 0.0
2017-May-20 00:30N 59°20' E 018°04'0 0.0
2017-May-20 00:00N 59°20' E 018°04'0 0.0
2017-May-19 23:30N 59°20' E 018°04'0 0.0
2017-May-19 23:00N 59°20' E 018°04'0 0.0
2017-May-19 22:30N 59°20' E 018°04'0 0.0
2017-May-19 22:00N 59°20' E 018°04'0 0.0
2017-May-19 21:30N 59°20' E 018°04'0 0.0
2017-May-19 21:00N 59°20' E 018°04'0 0.0
2017-May-19 20:30N 59°20' E 018°04'0 0.0
2017-May-19 20:00N 59°20' E 018°04'0 0.0
2017-May-19 19:30N 59°20' E 018°04'0 0.0
2017-May-19 19:00N 59°20' E 018°04'0 0.0
2017-May-19 18:30N 59°20' E 018°04'0 0.0
2017-May-19 18:00N 59°20' E 018°04'0 0.0
2017-May-19 17:30N 59°20' E 018°04'0 0.0
2017-May-19 17:00N 59°20' E 018°04'0 0.0
2017-May-19 16:30N 59°20' E 018°04'0 0.0
2017-May-19 16:00N 59°20' E 018°04'0 0.0
2017-May-19 15:30N 59°20' E 018°04'0 0.0
2017-May-19 15:00N 59°20' E 018°04'0 0.0
2017-May-19 14:00N 59°20' E 018°04'0 0.0
2017-May-19 13:30N 59°20' E 018°04'0 0.0
2017-May-19 13:00N 59°20' E 018°04'0 0.0
2017-May-19 12:30N 59°20' E 018°04'0 0.0
2017-May-19 12:00N 59°20' E 018°04'0 0.0
2017-May-19 11:30N 59°20' E 018°04'0 0.0
2017-May-19 11:00N 59°20' E 018°04'0 0.0
2017-May-19 10:30N 59°20' E 018°04'0 0.0
2017-May-19 10:00N 59°20' E 018°04'0 0.0
2017-May-19 09:30N 59°20' E 018°04'0 0.0
2017-May-19 09:00N 59°20' E 018°04'0 0.0
2017-May-19 08:30N 59°20' E 018°04'0 0.0
2017-May-19 08:00N 59°20' E 018°04'0 0.0
2017-May-19 07:30N 59°20' E 018°04'0 0.0
2017-May-19 07:00N 59°20' E 018°04'0 0.0
2017-May-19 06:30N 59°20' E 018°04'0 0.0
2017-May-19 06:00N 59°20' E 018°04'0 0.0
2017-May-19 05:30N 59°20' E 018°04'0 0.0
2017-May-19 05:00N 59°20' E 018°04'0 0.0
2017-May-19 04:30N 59°20' E 018°04'0 0.0
2017-May-19 04:00N 59°20' E 018°04'0 0.0
2017-May-19 03:30N 59°20' E 018°04'0 0.0
2017-May-19 03:00N 59°20' E 018°04'0 0.0
2017-May-19 02:30N 59°20' E 018°04'0 0.0
2017-May-19 02:00N 59°20' E 018°04'0 0.0
2017-May-19 01:30N 59°20' E 018°04'0 0.0
2017-May-19 01:00N 59°20' E 018°04'0 0.0
2017-May-19 00:30N 59°20' E 018°04'0 0.0
2017-May-19 00:00N 59°20' E 018°04'0 0.0
2017-May-18 23:30N 59°20' E 018°04'0 0.0
2017-May-18 23:00N 59°20' E 018°04'0 0.0
2017-May-18 22:30N 59°20' E 018°04'0 0.0
2017-May-18 22:00N 59°20' E 018°04'0 0.0
2017-May-18 21:30N 59°20' E 018°04'0 0.0
2017-May-18 21:00N 59°20' E 018°04'0 0.0
2017-May-18 20:30N 59°20' E 018°04'0 0.0
2017-May-18 20:00N 59°20' E 018°04'0 0.0
2017-May-18 19:30N 59°20' E 018°04'0 0.0
2017-May-18 19:00N 59°20' E 018°04'0 0.0
2017-May-18 18:30N 59°20' E 018°04'0 0.0
2017-May-18 18:00N 59°20' E 018°04'0 0.0
2017-May-18 17:30N 59°20' E 018°04'0 0.0
2017-May-18 17:00N 59°20' E 018°04'1 1.5
2017-May-18 16:30N 59°19' E 018°06'1 2.6
2017-May-18 16:00N 59°18' E 018°04'1 2.9
2017-May-18 15:30N 59°20' E 018°03'2 4.3
2017-May-18 15:00N 59°19' E 017°59'2 1.7
2017-May-18 14:00N 59°19' E 018°02'2 3.4
2017-May-18 13:30N 59°18' E 018°05'1 2.8
2017-May-18 13:00N 59°20' E 018°04'0 0.0
2017-May-18 12:30N 59°20' E 018°04'0 0.0
2017-May-18 12:00N 59°20' E 018°04'0 0.0
2017-May-18 11:30N 59°20' E 018°04'0 0.0
2017-May-18 11:00N 59°20' E 018°04'0 0.0
2017-May-18 10:30N 59°20' E 018°04'0 0.0
2017-May-18 10:00N 59°20' E 018°04'0 0.0
2017-May-18 09:30N 59°20' E 018°04'0 0.0
2017-May-18 09:00N 59°20' E 018°04'0 0.0
2017-May-18 08:30N 59°20' E 018°04'0 0.0
2017-May-18 08:00N 59°20' E 018°04'0 0.0
2017-May-18 07:30N 59°20' E 018°04'0 0.0
2017-May-18 07:00N 59°20' E 018°04'0 0.0
2017-May-18 06:30N 59°20' E 018°04'0 0.0
2017-May-18 06:00N 59°20' E 018°04'0 0.0
2017-May-18 05:30N 59°20' E 018°04'0 0.0
2017-May-18 05:00N 59°20' E 018°04'0 0.0
2017-May-18 04:30N 59°20' E 018°04'0 0.0
2017-May-18 04:00N 59°20' E 018°04'0 0.0
2017-May-18 03:30N 59°20' E 018°04'0 0.0
2017-May-18 03:00N 59°20' E 018°04'0 0.0
2017-May-18 02:30N 59°20' E 018°04'0 0.0
2017-May-18 02:00N 59°20' E 018°04'0 0.0
2017-May-18 01:30N 59°20' E 018°04'0 0.0
2017-May-18 01:00N 59°20' E 018°04'  

Dump ship's entire track history